sensor_id;sensor_type;location;lat;lon;timestamp;pressure;altitude;pressure_sealevel;temperature;humidity
84710;BME280;75589;42.648;23.274;2024-02-26T00:02:14;93104.38;;;6.47;82.51
84710;BME280;75589;42.648;23.274;2024-02-26T00:04:40;93094.66;;;6.44;79.18
84710;BME280;75589;42.648;23.274;2024-02-26T00:07:05;93096.41;;;6.49;80.69
84710;BME280;75589;42.648;23.274;2024-02-26T00:09:32;93095.81;;;6.62;79.53
84710;BME280;75589;42.648;23.274;2024-02-26T00:12:01;93079.25;;;6.73;77.27
84710;BME280;75589;42.648;23.274;2024-02-26T00:14:26;93093.31;;;6.85;76.69
84710;BME280;75589;42.648;23.274;2024-02-26T00:16:52;93092.75;;;6.88;77.01
84710;BME280;75589;42.648;23.274;2024-02-26T00:19:17;93089.19;;;6.84;77.15
84710;BME280;75589;42.648;23.274;2024-02-26T00:21:43;93098.09;;;6.97;78.41
84710;BME280;75589;42.648;23.274;2024-02-26T00:24:08;93091.97;;;6.93;79.32
84710;BME280;75589;42.648;23.274;2024-02-26T00:26:34;93074.53;;;6.85;77.95
84710;BME280;75589;42.648;23.274;2024-02-26T00:28:59;93074.53;;;6.85;79.01
84710;BME280;75589;42.648;23.274;2024-02-26T00:31:25;93081.94;;;6.91;79.94
84710;BME280;75589;42.648;23.274;2024-02-26T00:33:50;93079.09;;;6.93;79.47
84710;BME280;75589;42.648;23.274;2024-02-26T00:36:16;93081.34;;;7.00;79.40
84710;BME280;75589;42.648;23.274;2024-02-26T00:38:41;93077.41;;;7.07;79.60
84710;BME280;75589;42.648;23.274;2024-02-26T00:41:08;93064.00;;;7.10;80.27
84710;BME280;75589;42.648;23.274;2024-02-26T00:43:33;93067.06;;;7.12;80.62
84710;BME280;75589;42.648;23.274;2024-02-26T00:45:59;93062.69;;;7.13;80.57
84710;BME280;75589;42.648;23.274;2024-02-26T00:48:25;93053.91;;;7.19;78.89
84710;BME280;75589;42.648;23.274;2024-02-26T00:50:51;93066.16;;;7.27;78.58
84710;BME280;75589;42.648;23.274;2024-02-26T00:53:17;93060.06;;;7.18;78.26
84710;BME280;75589;42.648;23.274;2024-02-26T00:55:42;93044.84;;;7.21;79.38
84710;BME280;75589;42.648;23.274;2024-02-26T00:58:09;93045.50;;;7.32;79.96
84710;BME280;75589;42.648;23.274;2024-02-26T01:00:34;93052.63;;;7.40;76.94
84710;BME280;75589;42.648;23.274;2024-02-26T01:03:00;93050.28;;;7.43;78.58
84710;BME280;75589;42.648;23.274;2024-02-26T01:05:25;93049.25;;;7.44;79.34
84710;BME280;75589;42.648;23.274;2024-02-26T01:07:51;93051.72;;;7.54;74.48
84710;BME280;75589;42.648;23.274;2024-02-26T01:10:16;93052.19;;;7.56;75.58
84710;BME280;75589;42.648;23.274;2024-02-26T01:12:42;93047.34;;;7.50;76.85
84710;BME280;75589;42.648;23.274;2024-02-26T01:15:07;93037.69;;;7.42;79.76
84710;BME280;75589;42.648;23.274;2024-02-26T01:17:33;93041.84;;;7.38;78.10
84710;BME280;75589;42.648;23.274;2024-02-26T01:19:59;93045.34;;;7.47;77.17
84710;BME280;75589;42.648;23.274;2024-02-26T01:22:24;93054.34;;;7.49;77.51
84710;BME280;75589;42.648;23.274;2024-02-26T01:24:50;93040.56;;;7.35;78.53
84710;BME280;75589;42.648;23.274;2024-02-26T01:27:15;93044.22;;;7.34;79.12
84710;BME280;75589;42.648;23.274;2024-02-26T01:29:41;93046.38;;;7.46;78.05
84710;BME280;75589;42.648;23.274;2024-02-26T01:32:07;93048.72;;;7.42;78.93
84710;BME280;75589;42.648;23.274;2024-02-26T01:34:32;93029.78;;;7.33;78.45
84710;BME280;75589;42.648;23.274;2024-02-26T01:36:58;93045.41;;;7.42;79.56
84710;BME280;75589;42.648;23.274;2024-02-26T01:39:24;93033.91;;;7.34;78.72
84710;BME280;75589;42.648;23.274;2024-02-26T01:41:49;93040.03;;;7.38;79.66
84710;BME280;75589;42.648;23.274;2024-02-26T01:44:15;93047.63;;;7.48;78.96
84710;BME280;75589;42.648;23.274;2024-02-26T01:46:41;93032.25;;;7.43;80.08
84710;BME280;75589;42.648;23.274;2024-02-26T01:49:08;93042.31;;;7.64;78.70
84710;BME280;75589;42.648;23.274;2024-02-26T01:51:35;93041.28;;;7.65;78.38
84710;BME280;75589;42.648;23.274;2024-02-26T01:54:02;93034.94;;;7.57;78.66
84710;BME280;75589;42.648;23.274;2024-02-26T01:56:29;93034.53;;;7.45;78.38
84710;BME280;75589;42.648;23.274;2024-02-26T01:58:58;93035.25;;;7.50;79.29
84710;BME280;75589;42.648;23.274;2024-02-26T02:01:27;93029.25;;;7.55;79.99
84710;BME280;75589;42.648;23.274;2024-02-26T02:03:56;93027.94;;;7.57;78.53
84710;BME280;75589;42.648;23.274;2024-02-26T02:06:23;93028.28;;;7.51;78.89
84710;BME280;75589;42.648;23.274;2024-02-26T02:08:48;93041.53;;;7.63;79.46
84710;BME280;75589;42.648;23.274;2024-02-26T02:11:14;93037.72;;;7.61;78.94
84710;BME280;75589;42.648;23.274;2024-02-26T02:13:40;93026.00;;;7.49;78.24
84710;BME280;75589;42.648;23.274;2024-02-26T02:16:06;93024.03;;;7.41;79.15
84710;BME280;75589;42.648;23.274;2024-02-26T02:18:33;93023.97;;;7.46;78.83
84710;BME280;75589;42.648;23.274;2024-02-26T02:21:02;93021.16;;;7.43;78.85
84710;BME280;75589;42.648;23.274;2024-02-26T02:23:28;93022.84;;;7.34;80.86
84710;BME280;75589;42.648;23.274;2024-02-26T02:25:53;93022.84;;;7.34;80.68
84710;BME280;75589;42.648;23.274;2024-02-26T02:28:20;93022.06;;;7.33;80.55
84710;BME280;75589;42.648;23.274;2024-02-26T02:30:46;93009.19;;;7.33;78.69
84710;BME280;75589;42.648;23.274;2024-02-26T02:33:12;93022.13;;;7.52;77.77
84710;BME280;75589;42.648;23.274;2024-02-26T02:35:39;93017.03;;;7.47;80.11
84710;BME280;75589;42.648;23.274;2024-02-26T02:38:05;93023.84;;;7.56;77.97
84710;BME280;75589;42.648;23.274;2024-02-26T02:40:30;93028.94;;;7.62;78.72
84710;BME280;75589;42.648;23.274;2024-02-26T02:42:56;93013.66;;;7.46;78.74
84710;BME280;75589;42.648;23.274;2024-02-26T02:45:21;93035.25;;;7.50;79.73
84710;BME280;75589;42.648;23.274;2024-02-26T02:47:47;93015.13;;;7.52;79.48
84710;BME280;75589;42.648;23.274;2024-02-26T02:50:12;93040.78;;;7.63;80.14
84710;BME280;75589;42.648;23.274;2024-02-26T02:52:38;93046.09;;;7.71;78.09
84710;BME280;75589;42.648;23.274;2024-02-26T02:55:03;93045.72;;;7.59;78.60
84710;BME280;75589;42.648;23.274;2024-02-26T02:57:30;93052.91;;;7.62;79.29
84710;BME280;75589;42.648;23.274;2024-02-26T02:59:56;93054.22;;;7.60;78.44
84710;BME280;75589;42.648;23.274;2024-02-26T03:02:21;93047.63;;;7.72;79.61
84710;BME280;75589;42.648;23.274;2024-02-26T03:04:47;93046.50;;;7.78;80.81
84710;BME280;75589;42.648;23.274;2024-02-26T03:07:13;93042.66;;;7.76;79.96
84710;BME280;75589;42.648;23.274;2024-02-26T03:09:38;93045.13;;;7.67;77.92
84710;BME280;75589;42.648;23.274;2024-02-26T03:12:04;93044.34;;;7.67;78.73
84710;BME280;75589;42.648;23.274;2024-02-26T03:14:29;93042.16;;;7.55;80.04
84710;BME280;75589;42.648;23.274;2024-02-26T03:16:55;93036.31;;;7.49;80.11
84710;BME280;75589;42.648;23.274;2024-02-26T03:19:21;93043.97;;;7.54;80.10
84710;BME280;75589;42.648;23.274;2024-02-26T03:21:46;93038.72;;;7.65;81.48
84710;BME280;75589;42.648;23.274;2024-02-26T03:24:12;93033.56;;;7.65;80.38
84710;BME280;75589;42.648;23.274;2024-02-26T03:26:38;93029.78;;;7.57;80.71
84710;BME280;75589;42.648;23.274;2024-02-26T03:29:03;93026.78;;;7.69;78.83
84710;BME280;75589;42.648;23.274;2024-02-26T03:31:29;93016.53;;;7.64;78.33
84710;BME280;75589;42.648;23.274;2024-02-26T03:33:54;93028.03;;;7.71;80.17
84710;BME280;75589;42.648;23.274;2024-02-26T03:36:21;93008.09;;;7.58;80.42
84710;BME280;75589;42.648;23.274;2024-02-26T03:38:47;93014.63;;;7.50;79.16
84710;BME280;75589;42.648;23.274;2024-02-26T03:41:13;93006.13;;;7.31;78.77
84710;BME280;75589;42.648;23.274;2024-02-26T03:43:39;93019.97;;;7.35;80.70
84710;BME280;75589;42.648;23.274;2024-02-26T03:46:07;93008.03;;;7.44;80.46
84710;BME280;75589;42.648;23.274;2024-02-26T03:48:34;93012.41;;;7.44;80.17
84710;BME280;75589;42.648;23.274;2024-02-26T03:50:59;93013.31;;;7.53;79.48
84710;BME280;75589;42.648;23.274;2024-02-26T03:53:25;92996.59;;;7.50;79.51
84710;BME280;75589;42.648;23.274;2024-02-26T03:55:51;93012.50;;;7.57;79.55
84710;BME280;75589;42.648;23.274;2024-02-26T03:58:17;92998.22;;;7.46;79.20
84710;BME280;75589;42.648;23.274;2024-02-26T04:00:43;92992.53;;;7.49;78.95
84710;BME280;75589;42.648;23.274;2024-02-26T04:03:09;93006.00;;;7.41;78.92
84710;BME280;75589;42.648;23.274;2024-02-26T04:05:34;93007.03;;;7.40;79.78
84710;BME280;75589;42.648;23.274;2024-02-26T04:08:00;93000.00;;;7.46;80.26
84710;BME280;75589;42.648;23.274;2024-02-26T04:10:25;93007.63;;;7.56;80.37
84710;BME280;75589;42.648;23.274;2024-02-26T04:12:51;93016.28;;;7.65;79.75
84710;BME280;75589;42.648;23.274;2024-02-26T04:15:16;93012.47;;;7.63;78.97
84710;BME280;75589;42.648;23.274;2024-02-26T04:17:42;93009.44;;;7.55;78.31
84710;BME280;75589;42.648;23.274;2024-02-26T04:20:13;92995.28;;;7.53;78.29
84710;BME280;75589;42.648;23.274;2024-02-26T04:22:39;92995.16;;;7.44;79.44
84710;BME280;75589;42.648;23.274;2024-02-26T04:25:05;92999.47;;;7.49;79.74
84710;BME280;75589;42.648;23.274;2024-02-26T04:27:30;92998.94;;;7.52;79.47
84710;BME280;75589;42.648;23.274;2024-02-26T04:29:56;92985.66;;;7.40;79.65
84710;BME280;75589;42.648;23.274;2024-02-26T04:32:21;92991.31;;;7.42;80.36
84710;BME280;75589;42.648;23.274;2024-02-26T04:34:47;92985.53;;;7.31;79.67
84710;BME280;75589;42.648;23.274;2024-02-26T04:37:13;92978.81;;;7.30;80.84
84710;BME280;75589;42.648;23.274;2024-02-26T04:39:38;92986.44;;;7.40;80.01
84710;BME280;75589;42.648;23.274;2024-02-26T04:42:05;92992.16;;;7.56;78.59
84710;BME280;75589;42.648;23.274;2024-02-26T04:44:31;93001.22;;;7.53;79.20
84710;BME280;75589;42.648;23.274;2024-02-26T04:46:56;92993.00;;;7.51;80.35
84710;BME280;75589;42.648;23.274;2024-02-26T04:49:22;92981.75;;;7.42;80.77
84710;BME280;75589;42.648;23.274;2024-02-26T04:51:47;92990.00;;;7.44;80.97
84710;BME280;75589;42.648;23.274;2024-02-26T04:54:13;92999.53;;;7.44;80.75
84710;BME280;75589;42.648;23.274;2024-02-26T04:56:39;93017.75;;;7.47;81.52
84710;BME280;75589;42.648;23.274;2024-02-26T04:59:04;93004.81;;;7.52;79.54
84710;BME280;75589;42.648;23.274;2024-02-26T05:01:29;93011.81;;;7.52;78.47
84710;BME280;75589;42.648;23.274;2024-02-26T05:03:55;93001.88;;;7.40;79.86
84710;BME280;75589;42.648;23.274;2024-02-26T05:06:20;93025.53;;;7.42;80.64
84710;BME280;75589;42.648;23.274;2024-02-26T05:08:46;93028.47;;;7.36;80.45
84710;BME280;75589;42.648;23.274;2024-02-26T05:11:11;93016.97;;;7.28;81.73
84710;BME280;75589;42.648;23.274;2024-02-26T05:13:37;93020.75;;;7.36;82.93
84710;BME280;75589;42.648;23.274;2024-02-26T05:16:03;93018.44;;;7.34;81.46
84710;BME280;75589;42.648;23.274;2024-02-26T05:18:28;93041.53;;;7.44;81.66
84710;BME280;75589;42.648;23.274;2024-02-26T05:20:54;93036.78;;;7.51;82.13
84710;BME280;75589;42.648;23.274;2024-02-26T05:23:19;93039.91;;;7.48;80.02
84710;BME280;75589;42.648;23.274;2024-02-26T05:25:44;93030.28;;;7.35;80.93
84710;BME280;75589;42.648;23.274;2024-02-26T05:28:12;93042.38;;;7.35;80.82
84710;BME280;75589;42.648;23.274;2024-02-26T05:30:38;93056.03;;;7.35;80.62
84710;BME280;75589;42.648;23.274;2024-02-26T05:33:05;93048.63;;;7.29;81.05
84710;BME280;75589;42.648;23.274;2024-02-26T05:35:31;93053.94;;;7.37;81.78
84710;BME280;75589;42.648;23.274;2024-02-26T05:37:56;93051.81;;;7.44;81.84
84710;BME280;75589;42.648;23.274;2024-02-26T05:40:21;93054.72;;;7.62;81.51
84710;BME280;75589;42.648;23.274;2024-02-26T05:42:47;93051.41;;;7.56;82.11
84710;BME280;75589;42.648;23.274;2024-02-26T05:45:14;93067.59;;;7.62;82.93
84710;BME280;75589;42.648;23.274;2024-02-26T05:47:40;93062.44;;;7.62;82.71
84710;BME280;75589;42.648;23.274;2024-02-26T05:50:11;93057.72;;;7.69;81.98
84710;BME280;75589;42.648;23.274;2024-02-26T05:52:38;93061.72;;;7.80;81.49
84710;BME280;75589;42.648;23.274;2024-02-26T05:55:04;93055.31;;;7.77;81.15
84710;BME280;75589;42.648;23.274;2024-02-26T05:57:30;93070.91;;;7.86;81.46
84710;BME280;75589;42.648;23.274;2024-02-26T05:59:56;93072.66;;;7.90;80.62
84710;BME280;75589;42.648;23.274;2024-02-26T06:02:21;93069.25;;;7.95;80.22
84710;BME280;75589;42.648;23.274;2024-02-26T06:04:47;93058.47;;;7.93;80.38
84710;BME280;75589;42.648;23.274;2024-02-26T06:07:13;93056.19;;;7.86;79.31
84710;BME280;75589;42.648;23.274;2024-02-26T06:09:38;93080.53;;;7.99;80.70
84710;BME280;75589;42.648;23.274;2024-02-26T06:12:05;93073.94;;;7.93;80.68
84710;BME280;75589;42.648;23.274;2024-02-26T06:14:30;93069.81;;;7.92;79.36
84710;BME280;75589;42.648;23.274;2024-02-26T06:16:56;93071.53;;;7.96;79.86
84710;BME280;75589;42.648;23.274;2024-02-26T06:19:21;93080.03;;;7.97;78.83
84710;BME280;75589;42.648;23.274;2024-02-26T06:21:47;93081.31;;;7.99;80.75
84710;BME280;75589;42.648;23.274;2024-02-26T06:24:12;93078.94;;;8.03;79.92
84710;BME280;75589;42.648;23.274;2024-02-26T06:26:38;93069.97;;;8.00;80.05
84710;BME280;75589;42.648;23.274;2024-02-26T06:29:03;93073.50;;;8.04;80.20
84710;BME280;75589;42.648;23.274;2024-02-26T06:31:28;93074.44;;;8.13;80.26
84710;BME280;75589;42.648;23.274;2024-02-26T06:33:54;93079.53;;;8.18;79.63
84710;BME280;75589;42.648;23.274;2024-02-26T06:36:20;93072.97;;;8.26;78.65
84710;BME280;75589;42.648;23.274;2024-02-26T06:38:46;93066.06;;;8.22;79.13
84710;BME280;75589;42.648;23.274;2024-02-26T06:41:11;93070.94;;;8.23;80.08
84710;BME280;75589;42.648;23.274;2024-02-26T06:43:37;93078.28;;;8.35;79.27
84710;BME280;75589;42.648;23.274;2024-02-26T06:46:02;93074.38;;;8.37;78.73
84710;BME280;75589;42.648;23.274;2024-02-26T06:48:28;93074.44;;;8.32;78.94
84710;BME280;75589;42.648;23.274;2024-02-26T06:50:53;93084.44;;;8.39;78.41
84710;BME280;75589;42.648;23.274;2024-02-26T06:53:19;93071.31;;;8.35;78.27
84710;BME280;75589;42.648;23.274;2024-02-26T06:55:44;93074.97;;;8.34;78.81
84710;BME280;75589;42.648;23.274;2024-02-26T06:58:10;93066.59;;;8.42;79.53
84710;BME280;75589;42.648;23.274;2024-02-26T07:00:36;93082.19;;;8.51;79.24
84710;BME280;75589;42.648;23.274;2024-02-26T07:03:01;93075.69;;;8.53;78.57
84710;BME280;75589;42.648;23.274;2024-02-26T07:05:27;93083.91;;;8.55;78.41
84710;BME280;75589;42.648;23.274;2024-02-26T07:07:53;93084.63;;;8.61;78.12
84710;BME280;75589;42.648;23.274;2024-02-26T07:10:18;93077.34;;;8.63;78.31
84710;BME280;75589;42.648;23.274;2024-02-26T07:12:44;93094.22;;;8.74;76.07
84710;BME280;75589;42.648;23.274;2024-02-26T07:15:10;93089.91;;;8.69;77.25
84710;BME280;75589;42.648;23.274;2024-02-26T07:17:36;93098.53;;;8.78;76.81
84710;BME280;75589;42.648;23.274;2024-02-26T07:20:01;93095.69;;;8.80;76.16
84710;BME280;75589;42.648;23.274;2024-02-26T07:22:29;93095.22;;;8.78;76.89
84710;BME280;75589;42.648;23.274;2024-02-26T07:24:55;93102.66;;;8.79;77.43
84710;BME280;75589;42.648;23.274;2024-02-26T07:27:20;93095.63;;;8.66;78.36
84710;BME280;75589;42.648;23.274;2024-02-26T07:29:46;93101.03;;;8.83;77.96
84710;BME280;75589;42.648;23.274;2024-02-26T07:32:12;93086.53;;;8.88;79.13
84710;BME280;75589;42.648;23.274;2024-02-26T07:34:37;93089.13;;;8.88;77.07
84710;BME280;75589;42.648;23.274;2024-02-26T07:37:07;93103.34;;;9.04;75.00
84710;BME280;75589;42.648;23.274;2024-02-26T07:39:32;93105.38;;;9.20;76.46
84710;BME280;75589;42.648;23.274;2024-02-26T07:41:58;93107.50;;;9.32;76.06
84710;BME280;75589;42.648;23.274;2024-02-26T07:44:23;93102.72;;;9.39;73.79
84710;BME280;75589;42.648;23.274;2024-02-26T07:46:49;93101.88;;;9.43;74.11
84710;BME280;75589;42.648;23.274;2024-02-26T07:49:14;93085.31;;;9.44;72.49
84710;BME280;75589;42.648;23.274;2024-02-26T07:51:40;93098.53;;;9.57;75.33
84710;BME280;75589;42.648;23.274;2024-02-26T07:54:05;93100.00;;;9.63;73.93
84710;BME280;75589;42.648;23.274;2024-02-26T07:56:31;93104.09;;;9.64;74.17
84710;BME280;75589;42.648;23.274;2024-02-26T07:58:56;93093.47;;;9.65;73.53
84710;BME280;75589;42.648;23.274;2024-02-26T08:01:22;93092.22;;;9.76;73.50
84710;BME280;75589;42.648;23.274;2024-02-26T08:03:48;93090.50;;;9.85;72.05
84710;BME280;75589;42.648;23.274;2024-02-26T08:06:13;93084.06;;;9.96;71.79
84710;BME280;75589;42.648;23.274;2024-02-26T08:08:39;93090.75;;;10.25;72.74
84710;BME280;75589;42.648;23.274;2024-02-26T08:11:04;93084.84;;;10.24;71.23
84710;BME280;75589;42.648;23.274;2024-02-26T08:13:30;93091.41;;;10.30;72.04
84710;BME280;75589;42.648;23.274;2024-02-26T08:15:56;93079.44;;;10.34;71.91
84710;BME280;75589;42.648;23.274;2024-02-26T08:18:21;93081.94;;;10.39;71.36
84710;BME280;75589;42.648;23.274;2024-02-26T08:20:47;93094.06;;;10.52;71.71
84710;BME280;75589;42.648;23.274;2024-02-26T08:23:14;93087.91;;;10.62;67.43
84710;BME280;75589;42.648;23.274;2024-02-26T08:25:40;93087.66;;;10.72;71.29
84710;BME280;75589;42.648;23.274;2024-02-26T08:28:05;93075.38;;;10.78;69.44
84710;BME280;75589;42.648;23.274;2024-02-26T08:30:31;93079.84;;;10.86;67.73
84710;BME280;75589;42.648;23.274;2024-02-26T08:32:56;93079.16;;;10.94;67.65
84710;BME280;75589;42.648;23.274;2024-02-26T08:35:22;93083.34;;;11.12;69.12
84710;BME280;75589;42.648;23.274;2024-02-26T08:37:48;93075.81;;;11.02;66.59
84710;BME280;75589;42.648;23.274;2024-02-26T08:40:14;93095.56;;;11.11;67.07
84710;BME280;75589;42.648;23.274;2024-02-26T08:42:39;93093.38;;;11.27;68.02
84710;BME280;75589;42.648;23.274;2024-02-26T08:45:05;93088.41;;;11.39;67.62
84710;BME280;75589;42.648;23.274;2024-02-26T08:47:32;93084.81;;;11.57;68.05
84710;BME280;75589;42.648;23.274;2024-02-26T08:49:57;93075.16;;;11.49;66.95
84710;BME280;75589;42.648;23.274;2024-02-26T08:52:23;93085.59;;;11.58;65.83
84710;BME280;75589;42.648;23.274;2024-02-26T08:54:49;93089.41;;;11.29;66.24
84710;BME280;75589;42.648;23.274;2024-02-26T08:57:14;93090.22;;;11.39;67.40
84710;BME280;75589;42.648;23.274;2024-02-26T08:59:40;93078.72;;;11.62;67.40
84710;BME280;75589;42.648;23.274;2024-02-26T09:02:05;93074.53;;;11.74;66.25
84710;BME280;75589;42.648;23.274;2024-02-26T09:04:32;93082.44;;;11.69;66.80
84710;BME280;75589;42.648;23.274;2024-02-26T09:06:58;93079.75;;;11.21;64.06
84710;BME280;75589;42.648;23.274;2024-02-26T09:09:23;93079.00;;;11.52;66.75
84710;BME280;75589;42.648;23.274;2024-02-26T09:11:51;93064.09;;;11.66;65.65
84710;BME280;75589;42.648;23.274;2024-02-26T09:14:18;93067.06;;;11.81;64.59
84710;BME280;75589;42.648;23.274;2024-02-26T09:16:43;93075.19;;;11.88;64.42
84710;BME280;75589;42.648;23.274;2024-02-26T09:19:09;93075.94;;;11.89;63.81
84710;BME280;75589;42.648;23.274;2024-02-26T09:21:34;93066.06;;;11.91;63.26
84710;BME280;75589;42.648;23.274;2024-02-26T09:24:00;93082.09;;;12.10;64.57
84710;BME280;75589;42.648;23.274;2024-02-26T09:26:25;93071.59;;;12.24;66.26
84710;BME280;75589;42.648;23.274;2024-02-26T09:28:51;93058.00;;;12.18;63.94
84710;BME280;75589;42.648;23.274;2024-02-26T09:31:17;93066.88;;;12.34;61.15
84710;BME280;75589;42.648;23.274;2024-02-26T09:33:43;93071.16;;;12.39;61.94
84710;BME280;75589;42.648;23.274;2024-02-26T09:36:09;93054.38;;;12.36;61.16
84710;BME280;75589;42.648;23.274;2024-02-26T09:38:36;93072.22;;;12.64;61.19
84710;BME280;75589;42.648;23.274;2024-02-26T09:41:04;93059.84;;;12.69;59.04
84710;BME280;75589;42.648;23.274;2024-02-26T09:43:34;93064.47;;;12.81;59.29
84710;BME280;75589;42.648;23.274;2024-02-26T09:46:00;93054.81;;;12.90;60.21
84710;BME280;75589;42.648;23.274;2024-02-26T09:48:26;93058.47;;;12.97;59.23
84710;BME280;75589;42.648;23.274;2024-02-26T09:50:53;93054.47;;;13.00;59.05
84710;BME280;75589;42.648;23.274;2024-02-26T09:53:21;93063.19;;;13.21;59.51
84710;BME280;75589;42.648;23.274;2024-02-26T09:55:47;93060.84;;;13.37;58.65
84710;BME280;75589;42.648;23.274;2024-02-26T09:58:13;93058.53;;;13.44;57.74
84710;BME280;75589;42.648;23.274;2024-02-26T10:00:46;93048.31;;;13.39;60.43
84710;BME280;75589;42.648;23.274;2024-02-26T10:03:13;93040.34;;;13.44;57.16
84710;BME280;75589;42.648;23.274;2024-02-26T10:05:41;93041.53;;;13.46;56.36
84710;BME280;75589;42.648;23.274;2024-02-26T10:08:08;93043.38;;;13.46;57.32
84710;BME280;75589;42.648;23.274;2024-02-26T10:10:34;93035.72;;;13.49;56.70
84710;BME280;75589;42.648;23.274;2024-02-26T10:13:03;93028.28;;;13.39;56.49
84710;BME280;75589;42.648;23.274;2024-02-26T10:15:34;93035.09;;;13.52;57.44
84710;BME280;75589;42.648;23.274;2024-02-26T10:18:04;93030.16;;;13.68;57.22
84710;BME280;75589;42.648;23.274;2024-02-26T10:20:29;93032.41;;;13.40;55.92
84710;BME280;75589;42.648;23.274;2024-02-26T10:22:57;93019.53;;;13.44;56.83
84710;BME280;75589;42.648;23.274;2024-02-26T10:25:22;93011.44;;;13.37;56.38
84710;BME280;75589;42.648;23.274;2024-02-26T10:27:49;93010.59;;;13.53;57.42
84710;BME280;75589;42.648;23.274;2024-02-26T10:30:21;92990.53;;;13.62;57.55
84710;BME280;75589;42.648;23.274;2024-02-26T10:32:48;93003.03;;;13.69;56.78
84710;BME280;75589;42.648;23.274;2024-02-26T10:35:15;93002.16;;;13.65;57.55
84710;BME280;75589;42.648;23.274;2024-02-26T10:37:41;92983.50;;;13.63;57.83
84710;BME280;75589;42.648;23.274;2024-02-26T10:40:15;93005.16;;;13.75;55.25
84710;BME280;75589;42.648;23.274;2024-02-26T10:42:42;92984.59;;;13.82;58.04
84710;BME280;75589;42.648;23.274;2024-02-26T10:45:09;92989.25;;;13.98;56.23
84710;BME280;75589;42.648;23.274;2024-02-26T10:47:38;92982.72;;;13.92;54.38
84710;BME280;75589;42.648;23.274;2024-02-26T10:50:05;92983.47;;;13.92;54.72
84710;BME280;75589;42.648;23.274;2024-02-26T10:52:36;92995.28;;;14.10;56.34
84710;BME280;75589;42.648;23.274;2024-02-26T10:55:04;92992.06;;;14.13;53.52
84710;BME280;75589;42.648;23.274;2024-02-26T10:57:44;92983.28;;;14.18;54.51
84710;BME280;75589;42.648;23.274;2024-02-26T11:00:14;92995.06;;;14.24;54.04
84710;BME280;75589;42.648;23.274;2024-02-26T11:02:40;92980.19;;;14.24;52.69
84710;BME280;75589;42.648;23.274;2024-02-26T11:05:06;92978.91;;;14.30;52.98
84710;BME280;75589;42.648;23.274;2024-02-26T11:07:34;92970.34;;;14.30;53.83
84710;BME280;75589;42.648;23.274;2024-02-26T11:10:00;92974.75;;;14.38;53.51
84710;BME280;75589;42.648;23.274;2024-02-26T11:12:29;92981.25;;;14.32;53.61
84710;BME280;75589;42.648;23.274;2024-02-26T11:14:55;92992.81;;;14.43;55.38
84710;BME280;75589;42.648;23.274;2024-02-26T11:17:25;92978.13;;;14.38;55.45
84710;BME280;75589;42.648;23.274;2024-02-26T11:19:53;92973.59;;;14.27;53.52
84710;BME280;75589;42.648;23.274;2024-02-26T11:22:20;92980.50;;;14.23;51.30
84710;BME280;75589;42.648;23.274;2024-02-26T11:24:48;92981.34;;;14.15;52.11
84710;BME280;75589;42.648;23.274;2024-02-26T11:27:16;92979.88;;;14.26;52.76
84710;BME280;75589;42.648;23.274;2024-02-26T11:29:47;92977.91;;;14.23;53.05
84710;BME280;75589;42.648;23.274;2024-02-26T11:32:14;92971.03;;;14.18;53.75
84710;BME280;75589;42.648;23.274;2024-02-26T11:34:41;92961.41;;;14.19;52.54
84710;BME280;75589;42.648;23.274;2024-02-26T11:37:14;92969.28;;;14.31;52.34
84710;BME280;75589;42.648;23.274;2024-02-26T11:39:41;92969.44;;;14.26;53.32
84710;BME280;75589;42.648;23.274;2024-02-26T11:42:10;92968.38;;;14.27;52.60
84710;BME280;75589;42.648;23.274;2024-02-26T11:44:38;92969.59;;;14.29;52.63
84710;BME280;75589;42.648;23.274;2024-02-26T11:49:35;92959.38;;;14.45;52.23
84710;BME280;75589;42.648;23.274;2024-02-26T11:52:08;92949.97;;;14.53;52.57
84710;BME280;75589;42.648;23.274;2024-02-26T11:54:53;92953.34;;;14.53;52.64
84710;BME280;75589;42.648;23.274;2024-02-26T12:00:12;92959.66;;;14.64;50.53
84710;BME280;75589;42.648;23.274;2024-02-26T12:02:44;92961.34;;;14.81;51.34
84710;BME280;75589;42.648;23.274;2024-02-26T12:05:19;92963.75;;;14.86;51.15
84710;BME280;75589;42.648;23.274;2024-02-26T12:07:47;92967.66;;;14.92;51.64
84710;BME280;75589;42.648;23.274;2024-02-26T12:10:35;92964.88;;;14.97;50.62
84710;BME280;75589;42.648;23.274;2024-02-26T12:13:14;92964.53;;;14.98;50.24
84710;BME280;75589;42.648;23.274;2024-02-26T12:15:55;92966.94;;;15.03;50.46
84710;BME280;75589;42.648;23.274;2024-02-26T12:18:20;92969.97;;;15.05;49.74
84710;BME280;75589;42.648;23.274;2024-02-26T12:21:06;92949.22;;;14.97;49.37
84710;BME280;75589;42.648;23.274;2024-02-26T12:23:32;92967.13;;;14.98;49.86
84710;BME280;75589;42.648;23.274;2024-02-26T12:26:00;92976.19;;;15.13;49.99
84710;BME280;75589;42.648;23.274;2024-02-26T12:28:29;92969.66;;;15.07;49.92
84710;BME280;75589;42.648;23.274;2024-02-26T12:30:55;92978.66;;;14.97;49.39
84710;BME280;75589;42.648;23.274;2024-02-26T12:33:21;92986.41;;;15.18;50.41
84710;BME280;75589;42.648;23.274;2024-02-26T12:35:47;92976.19;;;15.13;48.87
84710;BME280;75589;42.648;23.274;2024-02-26T12:38:14;92966.16;;;15.03;49.42
84710;BME280;75589;42.648;23.274;2024-02-26T12:40:40;92981.09;;;15.27;48.85
84710;BME280;75589;42.648;23.274;2024-02-26T12:43:06;92981.75;;;15.24;47.23
84710;BME280;75589;42.648;23.274;2024-02-26T12:45:39;92987.28;;;15.22;49.12
84710;BME280;75589;42.648;23.274;2024-02-26T12:48:06;92974.97;;;15.11;48.28
84710;BME280;75589;42.648;23.274;2024-02-26T12:50:31;92972.22;;;14.95;46.13
84710;BME280;75589;42.648;23.274;2024-02-26T12:52:57;92977.78;;;15.05;47.21
84710;BME280;75589;42.648;23.274;2024-02-26T12:55:27;92967.91;;;14.99;47.63
84710;BME280;75589;42.648;23.274;2024-02-26T12:57:52;92981.19;;;15.18;47.28
84710;BME280;75589;42.648;23.274;2024-02-26T13:00:21;92976.53;;;15.24;47.69